sensor_id;sensor_type;location;lat;lon;timestamp;pressure;altitude;pressure_sealevel;temperature;humidity
53916;BME280;39827;49.652;18.770;2023-01-29T00:02:12;97225.13;;;-2.00;100.00
53916;BME280;39827;49.652;18.770;2023-01-29T00:04:37;97214.56;;;-2.07;100.00
53916;BME280;39827;49.652;18.770;2023-01-29T00:07:02;97211.44;;;-2.27;100.00
53916;BME280;39827;49.652;18.770;2023-01-29T00:09:28;97207.84;;;-2.26;100.00
53916;BME280;39827;49.652;18.770;2023-01-29T00:11:53;97212.69;;;-2.40;100.00
53916;BME280;39827;49.652;18.770;2023-01-29T00:14:19;97220.41;;;-2.48;100.00
53916;BME280;39827;49.652;18.770;2023-01-29T00:16:44;97228.31;;;-2.58;100.00
53916;BME280;39827;49.652;18.770;2023-01-29T00:19:09;97227.66;;;-2.60;100.00
53916;BME280;39827;49.652;18.770;2023-01-29T00:21:35;97223.78;;;-2.56;100.00
53916;BME280;39827;49.652;18.770;2023-01-29T00:24:00;97220.50;;;-2.66;100.00
53916;BME280;39827;49.652;18.770;2023-01-29T00:26:26;97230.88;;;-2.66;100.00
53916;BME280;39827;49.652;18.770;2023-01-29T00:28:52;97229.03;;;-2.74;100.00
53916;BME280;39827;49.652;18.770;2023-01-29T00:31:22;97231.59;;;-2.82;100.00
53916;BME280;39827;49.652;18.770;2023-01-29T00:33:48;97232.03;;;-2.60;100.00
53916;BME280;39827;49.652;18.770;2023-01-29T00:36:16;97222.59;;;-2.70;100.00
53916;BME280;39827;49.652;18.770;2023-01-29T00:38:41;97228.63;;;-2.61;100.00
53916;BME280;39827;49.652;18.770;2023-01-29T00:41:12;97234.28;;;-2.66;100.00
53916;BME280;39827;49.652;18.770;2023-01-29T00:43:57;97232.41;;;-2.55;100.00
53916;BME280;39827;49.652;18.770;2023-01-29T00:46:41;97246.63;;;-2.59;100.00
53916;BME280;39827;49.652;18.770;2023-01-29T00:49:07;97244.25;;;-2.79;100.00
53916;BME280;39827;49.652;18.770;2023-01-29T00:51:33;97256.75;;;-2.75;100.00
53916;BME280;39827;49.652;18.770;2023-01-29T00:53:59;97247.09;;;-2.64;100.00
53916;BME280;39827;49.652;18.770;2023-01-29T00:56:25;97257.56;;;-2.74;100.00
53916;BME280;39827;49.652;18.770;2023-01-29T00:58:51;97247.22;;;-2.66;100.00
53916;BME280;39827;49.652;18.770;2023-01-29T01:01:17;97255.97;;;-2.67;100.00
53916;BME280;39827;49.652;18.770;2023-01-29T01:04:03;97270.13;;;-2.61;100.00
53916;BME280;39827;49.652;18.770;2023-01-29T01:06:29;97250.69;;;-2.83;100.00
53916;BME280;39827;49.652;18.770;2023-01-29T01:08:54;97259.75;;;-2.88;100.00
53916;BME280;39827;49.652;18.770;2023-01-29T01:11:38;97269.72;;;-2.75;100.00
53916;BME280;39827;49.652;18.770;2023-01-29T01:14:03;97269.88;;;-2.76;100.00
53916;BME280;39827;49.652;18.770;2023-01-29T01:16:29;97254.16;;;-3.01;100.00
53916;BME280;39827;49.652;18.770;2023-01-29T01:18:54;97265.97;;;-2.80;100.00
53916;BME280;39827;49.652;18.770;2023-01-29T01:21:19;97255.69;;;-2.90;100.00
53916;BME280;39827;49.652;18.770;2023-01-29T01:23:45;97269.41;;;-2.98;100.00
53916;BME280;39827;49.652;18.770;2023-01-29T01:26:11;97261.44;;;-3.05;100.00
53916;BME280;39827;49.652;18.770;2023-01-29T01:28:37;97265.94;;;-3.07;100.00
53916;BME280;39827;49.652;18.770;2023-01-29T01:31:08;97257.81;;;-3.12;100.00
53916;BME280;39827;49.652;18.770;2023-01-29T01:33:34;97265.38;;;-3.37;100.00
53916;BME280;39827;49.652;18.770;2023-01-29T01:36:03;97265.78;;;-3.05;100.00
53916;BME280;39827;49.652;18.770;2023-01-29T01:38:28;97261.94;;;-3.19;100.00
53916;BME280;39827;49.652;18.770;2023-01-29T01:40:54;97256.06;;;-3.30;100.00
53916;BME280;39827;49.652;18.770;2023-01-29T01:43:19;97257.59;;;-3.19;100.00
53916;BME280;39827;49.652;18.770;2023-01-29T01:45:44;97260.25;;;-3.10;100.00
53916;BME280;39827;49.652;18.770;2023-01-29T01:48:22;97266.84;;;-3.16;100.00
53916;BME280;39827;49.652;18.770;2023-01-29T01:50:59;97266.47;;;-3.03;100.00
53916;BME280;39827;49.652;18.770;2023-01-29T01:53:34;97273.25;;;-3.02;100.00
53916;BME280;39827;49.652;18.770;2023-01-29T01:56:06;97280.00;;;-3.09;100.00
53916;BME280;39827;49.652;18.770;2023-01-29T01:58:40;97273.78;;;-3.17;100.00
53916;BME280;39827;49.652;18.770;2023-01-29T02:01:08;97274.47;;;-3.15;100.00
53916;BME280;39827;49.652;18.770;2023-01-29T02:03:37;97278.03;;;-3.16;100.00
53916;BME280;39827;49.652;18.770;2023-01-29T02:06:24;97274.53;;;-3.24;100.00
53916;BME280;39827;49.652;18.770;2023-01-29T02:09:12;97275.69;;;-3.01;100.00
53916;BME280;39827;49.652;18.770;2023-01-29T02:11:57;97271.25;;;-3.08;100.00
53916;BME280;39827;49.652;18.770;2023-01-29T02:14:23;97268.16;;;-3.12;100.00
53916;BME280;39827;49.652;18.770;2023-01-29T02:16:49;97275.84;;;-3.02;100.00
53916;BME280;39827;49.652;18.770;2023-01-29T02:19:22;97276.75;;;-3.11;100.00
53916;BME280;39827;49.652;18.770;2023-01-29T02:40:53;97229.72;;;-3.25;100.00
53916;BME280;39827;49.652;18.770;2023-01-29T02:43:32;97223.03;;;-3.28;100.00
53916;BME280;39827;49.652;18.770;2023-01-29T02:49:06;97230.19;;;-3.03;100.00
53916;BME280;39827;49.652;18.770;2023-01-29T02:51:50;97221.44;;;-3.02;100.00
53916;BME280;39827;49.652;18.770;2023-01-29T02:54:23;97221.56;;;-3.30;100.00
53916;BME280;39827;49.652;18.770;2023-01-29T02:56:56;97222.59;;;-3.23;100.00
53916;BME280;39827;49.652;18.770;2023-01-29T02:59:28;97227.16;;;-3.17;100.00
53916;BME280;39827;49.652;18.770;2023-01-29T03:02:01;97217.56;;;-3.24;100.00
53916;BME280;39827;49.652;18.770;2023-01-29T03:04:32;97228.22;;;-3.28;100.00
53916;BME280;39827;49.652;18.770;2023-01-29T03:07:03;97212.41;;;-3.43;100.00
53916;BME280;39827;49.652;18.770;2023-01-29T03:09:33;97224.09;;;-3.38;100.00
53916;BME280;39827;49.652;18.770;2023-01-29T03:12:17;97222.03;;;-3.35;100.00
53916;BME280;39827;49.652;18.770;2023-01-29T03:14:55;97235.47;;;-3.31;100.00
53916;BME280;39827;49.652;18.770;2023-01-29T03:17:54;97233.50;;;-3.37;100.00
53916;BME280;39827;49.652;18.770;2023-01-29T03:20:26;97236.53;;;-3.42;100.00
53916;BME280;39827;49.652;18.770;2023-01-29T03:23:03;97250.44;;;-3.43;100.00
53916;BME280;39827;49.652;18.770;2023-01-29T03:25:30;97237.72;;;-3.36;100.00
53916;BME280;39827;49.652;18.770;2023-01-29T03:28:17;97245.00;;;-3.32;100.00
53916;BME280;39827;49.652;18.770;2023-01-29T03:31:06;97249.75;;;-3.27;100.00
53916;BME280;39827;49.652;18.770;2023-01-29T03:33:57;97260.41;;;-3.30;100.00
53916;BME280;39827;49.652;18.770;2023-01-29T03:36:51;97264.47;;;-3.28;100.00
53916;BME280;39827;49.652;18.770;2023-01-29T03:39:20;97269.72;;;-3.19;99.98
53916;BME280;39827;49.652;18.770;2023-01-29T03:47:23;97264.88;;;-3.41;97.79
53916;BME280;39827;49.652;18.770;2023-01-29T03:58:28;97270.53;;;-3.37;99.24
53916;BME280;39827;49.652;18.770;2023-01-29T04:01:02;97261.38;;;-3.49;98.17
53916;BME280;39827;49.652;18.770;2023-01-29T04:03:41;97262.56;;;-3.44;99.45
53916;BME280;39827;49.652;18.770;2023-01-29T04:06:20;97269.34;;;-3.43;98.68
53916;BME280;39827;49.652;18.770;2023-01-29T04:09:26;97262.63;;;-3.54;98.44
53916;BME280;39827;49.652;18.770;2023-01-29T04:12:01;97261.31;;;-3.58;97.98
53916;BME280;39827;49.652;18.770;2023-01-29T04:14:28;97256.59;;;-3.62;97.16
53916;BME280;39827;49.652;18.770;2023-01-29T04:16:59;97250.00;;;-3.57;96.91
53916;BME280;39827;49.652;18.770;2023-01-29T04:19:26;97244.59;;;-3.63;96.77
53916;BME280;39827;49.652;18.770;2023-01-29T04:22:08;97244.59;;;-3.63;96.72
53916;BME280;39827;49.652;18.770;2023-01-29T04:24:39;97246.16;;;-3.71;95.69
53916;BME280;39827;49.652;18.770;2023-01-29T04:27:32;97232.09;;;-3.68;95.55
53916;BME280;39827;49.652;18.770;2023-01-29T04:30:22;97231.59;;;-3.72;95.62
53916;BME280;39827;49.652;18.770;2023-01-29T04:33:07;97245.50;;;-3.73;95.88
53916;BME280;39827;49.652;18.770;2023-01-29T04:41:45;97244.59;;;-3.63;96.33
53916;BME280;39827;49.652;18.770;2023-01-29T04:47:04;97238.91;;;-3.67;96.11
53916;BME280;39827;49.652;18.770;2023-01-29T04:55:31;97216.81;;;-3.80;95.74
53916;BME280;39827;49.652;18.770;2023-01-29T05:01:06;97214.03;;;-3.78;96.07
53916;BME280;39827;49.652;18.770;2023-01-29T05:03:35;97206.47;;;-3.80;96.50
53916;BME280;39827;49.652;18.770;2023-01-29T05:06:03;97204.00;;;-3.63;97.41
53916;BME280;39827;49.652;18.770;2023-01-29T05:08:30;97191.66;;;-3.69;96.67
53916;BME280;39827;49.652;18.770;2023-01-29T05:10:58;97192.84;;;-3.63;95.63
53916;BME280;39827;49.652;18.770;2023-01-29T05:13:25;97193.13;;;-3.48;97.02
53916;BME280;39827;49.652;18.770;2023-01-29T05:15:56;97190.03;;;-3.25;96.77
53916;BME280;39827;49.652;18.770;2023-01-29T05:18:24;97191.91;;;-3.09;95.61
53916;BME280;39827;49.652;18.770;2023-01-29T05:20:50;97176.78;;;-2.96;93.76
53916;BME280;39827;49.652;18.770;2023-01-29T05:23:18;97178.53;;;-3.05;91.02
53916;BME280;39827;49.652;18.770;2023-01-29T05:25:45;97173.81;;;-3.28;89.97
53916;BME280;39827;49.652;18.770;2023-01-29T05:28:11;97177.28;;;-3.45;89.93
53916;BME280;39827;49.652;18.770;2023-01-29T05:33:14;97165.09;;;-3.53;90.20
53916;BME280;39827;49.652;18.770;2023-01-29T05:35:40;97163.19;;;-3.69;91.07
53916;BME280;39827;49.652;18.770;2023-01-29T05:38:05;97176.28;;;-3.71;92.01
53916;BME280;39827;49.652;18.770;2023-01-29T05:40:31;97184.72;;;-3.87;94.21
53916;BME280;39827;49.652;18.770;2023-01-29T05:42:57;97184.31;;;-3.74;95.31
53916;BME280;39827;49.652;18.770;2023-01-29T05:45:23;97188.03;;;-3.76;96.06
53916;BME280;39827;49.652;18.770;2023-01-29T05:47:48;97188.38;;;-3.71;94.78
53916;BME280;39827;49.652;18.770;2023-01-29T05:50:14;97187.81;;;-3.83;94.97
53916;BME280;39827;49.652;18.770;2023-01-29T05:52:40;97184.94;;;-3.80;96.12
53916;BME280;39827;49.652;18.770;2023-01-29T05:55:07;97195.13;;;-3.78;96.69
53916;BME280;39827;49.652;18.770;2023-01-29T05:57:33;97204.50;;;-3.96;97.05
53916;BME280;39827;49.652;18.770;2023-01-29T05:59:58;97192.91;;;-3.92;97.11
53916;BME280;39827;49.652;18.770;2023-01-29T06:02:24;97197.03;;;-3.81;97.03
53916;BME280;39827;49.652;18.770;2023-01-29T06:04:50;97193.41;;;-3.70;97.69
53916;BME280;39827;49.652;18.770;2023-01-29T06:07:17;97209.03;;;-3.80;96.96
53916;BME280;39827;49.652;18.770;2023-01-29T06:09:42;97198.53;;;-3.60;97.41
53916;BME280;39827;49.652;18.770;2023-01-29T06:12:08;97202.88;;;-3.42;98.34
53916;BME280;39827;49.652;18.770;2023-01-29T06:14:33;97196.22;;;-3.45;97.81
53916;BME280;39827;49.652;18.770;2023-01-29T06:16:59;97197.72;;;-3.78;95.97
53916;BME280;39827;49.652;18.770;2023-01-29T06:19:24;97195.06;;;-3.87;96.11
53916;BME280;39827;49.652;18.770;2023-01-29T06:21:49;97202.16;;;-3.89;95.52
53916;BME280;39827;49.652;18.770;2023-01-29T06:24:15;97207.00;;;-4.04;96.91
53916;BME280;39827;49.652;18.770;2023-01-29T06:26:40;97210.19;;;-4.10;99.21
53916;BME280;39827;49.652;18.770;2023-01-29T06:29:06;97218.66;;;-3.72;98.96
53916;BME280;39827;49.652;18.770;2023-01-29T06:31:31;97207.75;;;-3.57;99.04
53916;BME280;39827;49.652;18.770;2023-01-29T06:33:56;97216.06;;;-3.72;97.45
53916;BME280;39827;49.652;18.770;2023-01-29T06:36:22;97211.69;;;-3.71;97.72
53916;BME280;39827;49.652;18.770;2023-01-29T06:38:47;97215.16;;;-3.81;97.61
53916;BME280;39827;49.652;18.770;2023-01-29T06:41:16;97207.47;;;-3.54;99.14
53916;BME280;39827;49.652;18.770;2023-01-29T06:43:45;97206.78;;;-3.56;96.58
53916;BME280;39827;49.652;18.770;2023-01-29T06:46:11;97228.84;;;-3.70;95.31
53916;BME280;39827;49.652;18.770;2023-01-29T06:48:36;97233.72;;;-3.67;94.83
53916;BME280;39827;49.652;18.770;2023-01-29T06:51:03;97227.81;;;-3.77;95.14
53916;BME280;39827;49.652;18.770;2023-01-29T06:53:29;97233.22;;;-3.71;96.18
53916;BME280;39827;49.652;18.770;2023-01-29T06:55:54;97244.28;;;-3.60;94.89
53916;BME280;39827;49.652;18.770;2023-01-29T06:58:20;97239.50;;;-3.55;95.62
53916;BME280;39827;49.652;18.770;2023-01-29T07:00:46;97248.00;;;-3.45;95.23
53916;BME280;39827;49.652;18.770;2023-01-29T07:03:11;97243.50;;;-3.61;94.73
53916;BME280;39827;49.652;18.770;2023-01-29T07:05:37;97245.56;;;-3.83;93.97
53916;BME280;39827;49.652;18.770;2023-01-29T07:08:03;97238.25;;;-3.69;94.26
53916;BME280;39827;49.652;18.770;2023-01-29T07:10:29;97244.38;;;-3.70;90.64
53916;BME280;39827;49.652;18.770;2023-01-29T07:12:54;97247.13;;;-3.72;91.13
53916;BME280;39827;49.652;18.770;2023-01-29T07:15:19;97248.59;;;-3.69;90.82
53916;BME280;39827;49.652;18.770;2023-01-29T07:18:14;97240.44;;;-3.56;90.83
53916;BME280;39827;49.652;18.770;2023-01-29T07:20:41;97246.31;;;-3.54;91.85
53916;BME280;39827;49.652;18.770;2023-01-29T07:23:11;97238.31;;;-3.61;91.46
53916;BME280;39827;49.652;18.770;2023-01-29T07:25:38;97232.75;;;-3.48;91.48
53916;BME280;39827;49.652;18.770;2023-01-29T07:28:04;97241.16;;;-3.28;90.77
53916;BME280;39827;49.652;18.770;2023-01-29T07:30:29;97237.44;;;-3.51;91.46
53916;BME280;39827;49.652;18.770;2023-01-29T07:33:00;97247.63;;;-3.50;92.34
53916;BME280;39827;49.652;18.770;2023-01-29T07:35:25;97222.94;;;-3.62;92.29
53916;BME280;39827;49.652;18.770;2023-01-29T07:37:51;97236.03;;;-3.46;91.58
53916;BME280;39827;49.652;18.770;2023-01-29T07:40:16;97243.09;;;-3.48;91.92
53916;BME280;39827;49.652;18.770;2023-01-29T07:42:41;97246.00;;;-3.51;92.42
53916;BME280;39827;49.652;18.770;2023-01-29T07:45:09;97234.63;;;-3.40;92.51
53916;BME280;39827;49.652;18.770;2023-01-29T07:47:34;97246.50;;;-3.29;92.01
53916;BME280;39827;49.652;18.770;2023-01-29T07:50:00;97231.28;;;-3.32;92.16
53916;BME280;39827;49.652;18.770;2023-01-29T07:52:25;97220.78;;;-3.49;92.64
53916;BME280;39827;49.652;18.770;2023-01-29T07:54:51;97247.22;;;-3.19;91.75
53916;BME280;39827;49.652;18.770;2023-01-29T07:57:16;97246.50;;;-3.29;92.21
53916;BME280;39827;49.652;18.770;2023-01-29T07:59:41;97246.13;;;-3.34;92.54
53916;BME280;39827;49.652;18.770;2023-01-29T08:02:11;97251.59;;;-3.19;92.25
53916;BME280;39827;49.652;18.770;2023-01-29T08:04:36;97247.03;;;-3.25;93.07
53916;BME280;39827;49.652;18.770;2023-01-29T08:07:02;97256.13;;;-3.21;91.83
53916;BME280;39827;49.652;18.770;2023-01-29T08:09:29;97260.03;;;-3.17;92.76
53916;BME280;39827;49.652;18.770;2023-01-29T08:11:54;97263.47;;;-3.08;90.78
53916;BME280;39827;49.652;18.770;2023-01-29T08:14:19;97261.00;;;-2.92;91.05
53916;BME280;39827;49.652;18.770;2023-01-29T08:16:45;97260.50;;;-2.69;90.49
53916;BME280;39827;49.652;18.770;2023-01-29T08:19:10;97260.03;;;-2.91;88.38
53916;BME280;39827;49.652;18.770;2023-01-29T08:21:36;97259.16;;;-2.81;89.76
53916;BME280;39827;49.652;18.770;2023-01-29T08:24:01;97265.66;;;-2.42;89.88
53916;BME280;39827;49.652;18.770;2023-01-29T08:26:26;97269.84;;;-2.50;87.92
53916;BME280;39827;49.652;18.770;2023-01-29T08:28:52;97275.88;;;-2.41;87.66
53916;BME280;39827;49.652;18.770;2023-01-29T08:31:18;97281.34;;;-2.17;87.14
53916;BME280;39827;49.652;18.770;2023-01-29T08:33:47;97294.66;;;-2.12;86.49
53916;BME280;39827;49.652;18.770;2023-01-29T08:36:12;97296.16;;;-2.01;85.70
53916;BME280;39827;49.652;18.770;2023-01-29T08:38:38;97299.66;;;-2.19;86.13
53916;BME280;39827;49.652;18.770;2023-01-29T08:41:04;97295.53;;;-1.95;86.65
53916;BME280;39827;49.652;18.770;2023-01-29T08:43:30;97311.41;;;-2.06;86.07
53916;BME280;39827;49.652;18.770;2023-01-29T08:45:55;97303.59;;;-2.06;85.71
53916;BME280;39827;49.652;18.770;2023-01-29T08:48:21;97298.13;;;-1.95;85.02
53916;BME280;39827;49.652;18.770;2023-01-29T08:50:46;97310.91;;;-1.34;82.74
53916;BME280;39827;49.652;18.770;2023-01-29T08:53:11;97297.94;;;-1.09;80.84
53916;BME280;39827;49.652;18.770;2023-01-29T08:55:38;97289.00;;;-1.23;77.78
53916;BME280;39827;49.652;18.770;2023-01-29T08:58:06;97300.69;;;-1.27;78.82
53916;BME280;39827;49.652;18.770;2023-01-29T09:00:32;97294.03;;;-1.21;78.12
53916;BME280;39827;49.652;18.770;2023-01-29T09:02:58;97301.66;;;-0.70;76.75
53916;BME280;39827;49.652;18.770;2023-01-29T09:05:25;97298.13;;;-0.29;74.85
53916;BME280;39827;49.652;18.770;2023-01-29T09:07:50;97293.22;;;-0.88;74.28
53916;BME280;39827;49.652;18.770;2023-01-29T09:10:16;97295.81;;;-0.88;76.15
53916;BME280;39827;49.652;18.770;2023-01-29T09:12:41;97296.75;;;1.02;69.24
53916;BME280;39827;49.652;18.770;2023-01-29T09:15:07;97309.53;;;0.50;66.56
53916;BME280;39827;49.652;18.770;2023-01-29T09:17:33;97317.88;;;0.06;69.05
53916;BME280;39827;49.652;18.770;2023-01-29T09:19:58;97306.44;;;-0.25;71.09
53916;BME280;39827;49.652;18.770;2023-01-29T09:22:24;97310.63;;;-0.16;71.61
53916;BME280;39827;49.652;18.770;2023-01-29T09:24:49;97311.59;;;-0.08;69.64
53916;BME280;39827;49.652;18.770;2023-01-29T09:27:15;97302.63;;;2.77;61.08
53916;BME280;39827;49.652;18.770;2023-01-29T09:29:40;97308.59;;;6.23;49.70
53916;BME280;39827;49.652;18.770;2023-01-29T09:32:06;97298.34;;;8.68;42.26
53916;BME280;39827;49.652;18.770;2023-01-29T09:34:31;97296.47;;;7.45;43.81
53916;BME280;39827;49.652;18.770;2023-01-29T09:36:56;97286.34;;;5.33;45.63
53916;BME280;39827;49.652;18.770;2023-01-29T09:39:22;97271.78;;;2.94;51.27
53916;BME280;39827;49.652;18.770;2023-01-29T09:45:11;97261.69;;;0.90;59.59
53916;BME280;39827;49.652;18.770;2023-01-29T09:47:38;97263.63;;;0.18;62.52
53916;BME280;39827;49.652;18.770;2023-01-29T09:50:14;97241.66;;;0.44;61.67
53916;BME280;39827;49.652;18.770;2023-01-29T09:52:49;97237.88;;;-0.09;62.68
53916;BME280;39827;49.652;18.770;2023-01-29T09:55:22;97237.44;;;-0.12;62.31
53916;BME280;39827;49.652;18.770;2023-01-29T09:57:50;97247.97;;;-0.06;63.03
53916;BME280;39827;49.652;18.770;2023-01-29T10:00:59;97240.59;;;-0.34;61.87
53916;BME280;39827;49.652;18.770;2023-01-29T10:06:14;97246.31;;;-0.38;66.13
53916;BME280;39827;49.652;18.770;2023-01-29T10:11:56;97249.09;;;-0.48;69.70
53916;BME280;39827;49.652;18.770;2023-01-29T10:18:02;97253.28;;;-0.96;68.85
53916;BME280;39827;49.652;18.770;2023-01-29T10:23:35;97226.31;;;-1.20;70.13
53916;BME280;39827;49.652;18.770;2023-01-29T10:26:02;97238.16;;;-1.17;70.57
53916;BME280;39827;49.652;18.770;2023-01-29T10:28:29;97243.72;;;-1.45;70.18
53916;BME280;39827;49.652;18.770;2023-01-29T10:31:02;97222.09;;;-1.37;70.58
53916;BME280;39827;49.652;18.770;2023-01-29T10:33:38;97230.06;;;-1.22;70.61
53916;BME280;39827;49.652;18.770;2023-01-29T10:36:08;97224.16;;;-0.91;70.34
53916;BME280;39827;49.652;18.770;2023-01-29T10:38:45;97223.69;;;-0.95;68.80
53916;BME280;39827;49.652;18.770;2023-01-29T10:47:00;97205.84;;;-0.41;67.03
53916;BME280;39827;49.652;18.770;2023-01-29T11:00:19;97148.63;;;0.68;63.70
53916;BME280;39827;49.652;18.770;2023-01-29T11:02:47;97156.94;;;4.04;54.42
53916;BME280;39827;49.652;18.770;2023-01-29T11:05:28;97174.78;;;6.02;45.55
53916;BME280;39827;49.652;18.770;2023-01-29T11:08:02;97171.31;;;4.49;46.50
53916;BME280;39827;49.652;18.770;2023-01-29T11:10:32;97151.34;;;2.81;53.10
53916;BME280;39827;49.652;18.770;2023-01-29T11:13:01;97143.63;;;1.78;55.35
53916;BME280;39827;49.652;18.770;2023-01-29T11:15:31;97147.66;;;0.84;57.08
53916;BME280;39827;49.652;18.770;2023-01-29T11:18:13;97137.97;;;0.39;60.08
53916;BME280;39827;49.652;18.770;2023-01-29T11:20:41;97135.09;;;0.10;61.87
53916;BME280;39827;49.652;18.770;2023-01-29T11:23:24;97121.31;;;0.25;63.67
53916;BME280;39827;49.652;18.770;2023-01-29T11:25:52;97120.22;;;-0.28;60.56
53916;BME280;39827;49.652;18.770;2023-01-29T11:28:36;97110.44;;;-0.57;63.55
53916;BME280;39827;49.652;18.770;2023-01-29T11:31:03;97093.53;;;-0.85;66.35
53916;BME280;39827;49.652;18.770;2023-01-29T11:33:29;97095.06;;;-1.07;67.05
53916;BME280;39827;49.652;18.770;2023-01-29T11:35:54;97103.78;;;-0.92;65.67
53916;BME280;39827;49.652;18.770;2023-01-29T11:38:29;97093.63;;;-1.18;66.31
53916;BME280;39827;49.652;18.770;2023-01-29T11:41:05;97095.19;;;-0.92;67.02
53916;BME280;39827;49.652;18.770;2023-01-29T11:43:32;97076.06;;;-1.08;65.39
53916;BME280;39827;49.652;18.770;2023-01-29T11:46:02;97081.53;;;-0.94;64.23
53916;BME280;39827;49.652;18.770;2023-01-29T11:51:06;97083.13;;;-0.85;66.01
53916;BME280;39827;49.652;18.770;2023-01-29T11:53:44;97073.16;;;-0.73;64.46
53916;BME280;39827;49.652;18.770;2023-01-29T11:56:26;97063.78;;;-0.82;63.54
53916;BME280;39827;49.652;18.770;2023-01-29T11:58:53;97062.34;;;-0.85;64.45
53916;BME280;39827;49.652;18.770;2023-01-29T12:01:29;97044.66;;;-0.34;63.82
53916;BME280;39827;49.652;18.770;2023-01-29T12:03:58;97051.47;;;0.89;56.40
53916;BME280;39827;49.652;18.770;2023-01-29T12:06:40;97047.88;;;1.42;53.45
53916;BME280;39827;49.652;18.770;2023-01-29T12:09:15;97033.97;;;2.00;51.49
53916;BME280;39827;49.652;18.770;2023-01-29T12:11:42;97055.84;;;1.55;55.36
53916;BME280;39827;49.652;18.770;2023-01-29T12:14:30;97053.00;;;2.86;52.51
53916;BME280;39827;49.652;18.770;2023-01-29T12:17:12;97058.78;;;4.00;46.93
53916;BME280;39827;49.652;18.770;2023-01-29T12:19:47;97063.09;;;3.38;47.57
53916;BME280;39827;49.652;18.770;2023-01-29T12:22:39;97065.91;;;3.37;48.74
53916;BME280;39827;49.652;18.770;2023-01-29T12:28:12;97067.75;;;3.01;48.70
53916;BME280;39827;49.652;18.770;2023-01-29T12:33:23;97055.97;;;1.47;55.33
53916;BME280;39827;49.652;18.770;2023-01-29T12:35:55;97061.28;;;0.57;57.06
53916;BME280;39827;49.652;18.770;2023-01-29T12:38:25;97053.63;;;0.40;58.60
53916;BME280;39827;49.652;18.770;2023-01-29T12:41:03;97061.63;;;0.00;59.81
53916;BME280;39827;49.652;18.770;2023-01-29T12:46:00;97040.88;;;-0.32;61.34
53916;BME280;39827;49.652;18.770;2023-01-29T12:48:32;97036.84;;;-0.34;60.95
53916;BME280;39827;49.652;18.770;2023-01-29T12:51:12;97051.19;;;-0.15;60.57
53916;BME280;39827;49.652;18.770;2023-01-29T12:53:50;97049.97;;;-0.04;61.02
53916;BME280;39827;49.652;18.770;2023-01-29T12:56:28;97038.34;;;-0.17;60.14
53916;BME280;39827;49.652;18.770;2023-01-29T12:58:56;97045.16;;;-0.16;60.84
53916;BME280;39827;49.652;18.770;2023-01-29T13:01:27;97049.19;;;0.10;58.74
53916;BME280;39827;49.652;18.770;2023-01-29T13:04:25;97042.94;;;-0.04;59.63
53916;BME280;39827;49.652;18.770;2023-01-29T13:07:02;97043.72;;;0.20;59.52
53916;BME280;39827;49.652;18.770;2023-01-29T13:09:33;97031.34;;;0.52;56.57
53916;BME280;39827;49.652;18.770;2023-01-29T13:12:11;97016.88;;;2.62;53.54
53916;BME280;39827;49.652;18.770;2023-01-29T13:14:53;97020.03;;;2.92;50.73
53916;BME280;39827;49.652;18.770;2023-01-29T13:17:35;97030.34;;;3.83;49.93
53916;BME280;39827;49.652;18.770;2023-01-29T13:20:40;97040.91;;;3.28;49.14
53916;BME280;39827;49.652;18.770;2023-01-29T13:23:21;97032.03;;;2.73;50.88
53916;BME280;39827;49.652;18.770;2023-01-29T13:25:52;97046.19;;;2.57;51.52
53916;BME280;39827;49.652;18.770;2023-01-29T13:28:22;97045.78;;;2.89;50.33
53916;BME280;39827;49.652;18.770;2023-01-29T13:31:12;97045.88;;;2.38;51.18
53916;BME280;39827;49.652;18.770;2023-01-29T13:33:39;97027.25;;;1.69;52.06
53916;BME280;39827;49.652;18.770;2023-01-29T13:36:13;97031.09;;;0.62;56.02
53916;BME280;39827;49.652;18.770;2023-01-29T13:38:41;97027.22;;;0.73;56.71
53916;BME280;39827;49.652;18.770;2023-01-29T13:41:09;97022.69;;;0.37;57.99
53916;BME280;39827;49.652;18.770;2023-01-29T13:43:40;97035.19;;;-0.12;59.29
53916;BME280;39827;49.652;18.770;2023-01-29T13:46:09;97029.00;;;-0.11;59.22
53916;BME280;39827;49.652;18.770;2023-01-29T13:48:44;97017.53;;;-0.40;60.09
53916;BME280;39827;49.652;18.770;2023-01-29T13:51:13;97015.03;;;-0.33;60.40
53916;BME280;39827;49.652;18.770;2023-01-29T13:53:42;97016.13;;;-0.51;60.03
53916;BME280;39827;49.652;18.770;2023-01-29T13:59:03;97012.09;;;-1.17;62.43
53916;BME280;39827;49.652;18.770;2023-01-29T14:06:53;97010.06;;;-0.98;64.37
53916;BME280;39827;49.652;18.770;2023-01-29T14:09:33;97017.44;;;-1.50;66.17
53916;BME280;39827;49.652;18.770;2023-01-29T14:17:21;97004.31;;;-1.57;68.75
53916;BME280;39827;49.652;18.770;2023-01-29T14:19:51;97013.78;;;-1.24;67.22
53916;BME280;39827;49.652;18.770;2023-01-29T14:22:24;97013.81;;;-1.33;67.70
53916;BME280;39827;49.652;18.770;2023-01-29T14:25:15;97009.63;;;-1.50;67.86
53916;BME280;39827;49.652;18.770;2023-01-29T14:27:46;96995.13;;;-2.01;69.16
53916;BME280;39827;49.652;18.770;2023-01-29T14:30:15;97003.38;;;-1.89;68.59
53916;BME280;39827;49.652;18.770;2023-01-29T14:32:45;97006.16;;;-2.07;68.96
53916;BME280;39827;49.652;18.770;2023-01-29T14:35:20;96995.13;;;-2.01;69.41
53916;BME280;39827;49.652;18.770;2023-01-29T14:37:49;96990.56;;;-1.99;68.98
53916;BME280;39827;49.652;18.770;2023-01-29T14:40:20;96996.75;;;-2.00;69.89
53916;BME280;39827;49.652;18.770;2023-01-29T14:43:06;96991.72;;;-2.02;69.50
53916;BME280;39827;49.652;18.770;2023-01-29T14:45:38;96982.84;;;-2.16;69.45
53916;BME280;39827;49.652;18.770;2023-01-29T14:58:17;96986.56;;;-2.60;69.77
53916;BME280;39827;49.652;18.770;2023-01-29T15:00:50;96993.06;;;-2.47;68.28
53916;BME280;39827;49.652;18.770;2023-01-29T15:03:26;96986.09;;;-2.55;68.42
53916;BME280;39827;49.652;18.770;2023-01-29T15:05:52;96987.84;;;-2.64;68.91
53916;BME280;39827;49.652;18.770;2023-01-29T15:08:31;96991.41;;;-2.65;70.19
53916;BME280;39827;49.652;18.770;2023-01-29T15:10:59;96988.00;;;-2.66;72.34
53916;BME280;39827;49.652;18.770;2023-01-29T15:19:41;96999.53;;;-3.28;80.39